sensor_id;sensor_type;location;lat;lon;timestamp;temperature;humidity
61412;DHT22;47278;49.732;7.690;2023-12-28T00:00:30;1.90;99.90
61412;DHT22;47278;49.732;7.690;2023-12-28T00:02:55;2.00;99.90
61412;DHT22;47278;49.732;7.690;2023-12-28T00:05:22;2.00;99.90
61412;DHT22;47278;49.732;7.690;2023-12-28T00:07:48;2.00;99.90
61412;DHT22;47278;49.732;7.690;2023-12-28T00:10:22;2.10;99.90
61412;DHT22;47278;49.732;7.690;2023-12-28T00:12:49;2.10;99.90
61412;DHT22;47278;49.732;7.690;2023-12-28T00:15:14;2.10;99.90
61412;DHT22;47278;49.732;7.690;2023-12-28T00:17:40;2.40;99.90
61412;DHT22;47278;49.732;7.690;2023-12-28T00:20:05;2.40;99.90
61412;DHT22;47278;49.732;7.690;2023-12-28T00:22:32;2.60;99.90
61412;DHT22;47278;49.732;7.690;2023-12-28T00:24:59;2.90;99.90
61412;DHT22;47278;49.732;7.690;2023-12-28T00:27:24;2.60;99.90
61412;DHT22;47278;49.732;7.690;2023-12-28T00:29:50;2.90;99.90
61412;DHT22;47278;49.732;7.690;2023-12-28T00:32:17;2.90;99.90
61412;DHT22;47278;49.732;7.690;2023-12-28T00:34:42;3.20;99.90
61412;DHT22;47278;49.732;7.690;2023-12-28T00:37:09;2.80;99.90
61412;DHT22;47278;49.732;7.690;2023-12-28T00:39:34;3.20;99.90
61412;DHT22;47278;49.732;7.690;2023-12-28T00:42:01;3.60;99.90
61412;DHT22;47278;49.732;7.690;2023-12-28T00:44:27;3.10;99.90
61412;DHT22;47278;49.732;7.690;2023-12-28T00:46:53;4.80;99.90
61412;DHT22;47278;49.732;7.690;2023-12-28T00:49:18;3.30;99.90
61412;DHT22;47278;49.732;7.690;2023-12-28T00:51:44;3.80;99.90
61412;DHT22;47278;49.732;7.690;2023-12-28T00:54:11;4.30;99.90
61412;DHT22;47278;49.732;7.690;2023-12-28T00:56:37;5.10;99.90
61412;DHT22;47278;49.732;7.690;2023-12-28T00:59:03;5.40;99.90
61412;DHT22;47278;49.732;7.690;2023-12-28T01:01:29;5.40;99.90
61412;DHT22;47278;49.732;7.690;2023-12-28T01:03:57;5.70;99.90
61412;DHT22;47278;49.732;7.690;2023-12-28T01:06:25;5.90;99.90
61412;DHT22;47278;49.732;7.690;2023-12-28T01:08:54;5.80;99.90
61412;DHT22;47278;49.732;7.690;2023-12-28T01:11:20;5.90;99.90
61412;DHT22;47278;49.732;7.690;2023-12-28T01:13:47;5.70;99.90
61412;DHT22;47278;49.732;7.690;2023-12-28T01:16:13;5.90;99.90
61412;DHT22;47278;49.732;7.690;2023-12-28T01:18:39;6.30;99.90
61412;DHT22;47278;49.732;7.690;2023-12-28T01:21:05;6.90;99.90
61412;DHT22;47278;49.732;7.690;2023-12-28T01:23:31;7.80;99.90
61412;DHT22;47278;49.732;7.690;2023-12-28T01:25:57;8.10;99.90
61412;DHT22;47278;49.732;7.690;2023-12-28T01:28:23;8.20;99.90
61412;DHT22;47278;49.732;7.690;2023-12-28T01:30:49;8.20;99.90
61412;DHT22;47278;49.732;7.690;2023-12-28T01:33:15;8.20;99.90
61412;DHT22;47278;49.732;7.690;2023-12-28T01:35:41;8.40;99.90
61412;DHT22;47278;49.732;7.690;2023-12-28T01:38:07;8.50;99.90
61412;DHT22;47278;49.732;7.690;2023-12-28T01:40:32;8.70;99.90
61412;DHT22;47278;49.732;7.690;2023-12-28T01:42:58;8.70;99.90
61412;DHT22;47278;49.732;7.690;2023-12-28T01:45:24;8.70;99.90
61412;DHT22;47278;49.732;7.690;2023-12-28T01:47:52;8.60;99.90
61412;DHT22;47278;49.732;7.690;2023-12-28T01:50:18;8.70;99.90
61412;DHT22;47278;49.732;7.690;2023-12-28T01:52:44;8.70;99.90
61412;DHT22;47278;49.732;7.690;2023-12-28T01:55:10;8.70;99.90
61412;DHT22;47278;49.732;7.690;2023-12-28T01:57:36;8.60;99.90
61412;DHT22;47278;49.732;7.690;2023-12-28T02:00:03;8.50;99.90
61412;DHT22;47278;49.732;7.690;2023-12-28T02:02:30;8.50;99.90
61412;DHT22;47278;49.732;7.690;2023-12-28T02:04:57;8.50;99.90
61412;DHT22;47278;49.732;7.690;2023-12-28T02:07:23;8.40;99.90
61412;DHT22;47278;49.732;7.690;2023-12-28T02:09:49;8.40;99.90
61412;DHT22;47278;49.732;7.690;2023-12-28T02:12:15;8.40;99.90
61412;DHT22;47278;49.732;7.690;2023-12-28T02:14:41;8.50;99.90
61412;DHT22;47278;49.732;7.690;2023-12-28T02:17:10;8.50;99.90
61412;DHT22;47278;49.732;7.690;2023-12-28T02:22:11;8.40;99.90
61412;DHT22;47278;49.732;7.690;2023-12-28T02:27:22;8.30;99.90
61412;DHT22;47278;49.732;7.690;2023-12-28T02:29:48;8.40;99.90
61412;DHT22;47278;49.732;7.690;2023-12-28T02:32:15;8.40;99.90
61412;DHT22;47278;49.732;7.690;2023-12-28T02:34:43;8.40;99.90
61412;DHT22;47278;49.732;7.690;2023-12-28T02:37:11;8.30;99.90
61412;DHT22;47278;49.732;7.690;2023-12-28T02:39:38;8.30;99.90
61412;DHT22;47278;49.732;7.690;2023-12-28T02:42:05;8.30;99.90
61412;DHT22;47278;49.732;7.690;2023-12-28T02:44:31;8.30;99.90
61412;DHT22;47278;49.732;7.690;2023-12-28T02:46:57;8.30;99.90
61412;DHT22;47278;49.732;7.690;2023-12-28T02:49:23;8.30;99.90
61412;DHT22;47278;49.732;7.690;2023-12-28T02:51:48;8.20;99.90
61412;DHT22;47278;49.732;7.690;2023-12-28T02:54:14;8.10;99.90
61412;DHT22;47278;49.732;7.690;2023-12-28T02:56:41;8.10;99.90
61412;DHT22;47278;49.732;7.690;2023-12-28T02:59:07;8.10;99.90
61412;DHT22;47278;49.732;7.690;2023-12-28T03:01:32;8.00;99.90
61412;DHT22;47278;49.732;7.690;2023-12-28T03:03:58;8.10;99.90
61412;DHT22;47278;49.732;7.690;2023-12-28T03:06:24;8.00;99.90
61412;DHT22;47278;49.732;7.690;2023-12-28T03:08:50;8.00;99.90
61412;DHT22;47278;49.732;7.690;2023-12-28T03:11:17;8.00;99.90
61412;DHT22;47278;49.732;7.690;2023-12-28T03:13:43;8.00;99.90
61412;DHT22;47278;49.732;7.690;2023-12-28T03:16:09;8.00;99.90
61412;DHT22;47278;49.732;7.690;2023-12-28T03:18:34;8.00;99.90
61412;DHT22;47278;49.732;7.690;2023-12-28T03:21:01;8.00;99.90
61412;DHT22;47278;49.732;7.690;2023-12-28T03:23:27;8.00;99.90
61412;DHT22;47278;49.732;7.690;2023-12-28T03:25:52;8.00;99.90
61412;DHT22;47278;49.732;7.690;2023-12-28T03:28:18;7.90;99.90
61412;DHT22;47278;49.732;7.690;2023-12-28T03:30:47;7.90;99.90
61412;DHT22;47278;49.732;7.690;2023-12-28T03:33:12;8.00;99.90
61412;DHT22;47278;49.732;7.690;2023-12-28T03:35:38;8.00;99.90
61412;DHT22;47278;49.732;7.690;2023-12-28T03:38:05;8.00;99.90
61412;DHT22;47278;49.732;7.690;2023-12-28T03:40:31;8.00;99.90
61412;DHT22;47278;49.732;7.690;2023-12-28T03:42:56;8.00;99.90
61412;DHT22;47278;49.732;7.690;2023-12-28T03:45:23;8.00;99.90
61412;DHT22;47278;49.732;7.690;2023-12-28T03:47:49;8.00;99.90
61412;DHT22;47278;49.732;7.690;2023-12-28T03:50:16;8.00;99.90
61412;DHT22;47278;49.732;7.690;2023-12-28T03:52:43;8.00;99.90
61412;DHT22;47278;49.732;7.690;2023-12-28T03:55:08;8.00;99.90
61412;DHT22;47278;49.732;7.690;2023-12-28T03:57:34;8.10;99.90
61412;DHT22;47278;49.732;7.690;2023-12-28T03:59:59;8.10;99.90
61412;DHT22;47278;49.732;7.690;2023-12-28T04:02:25;8.10;99.90
61412;DHT22;47278;49.732;7.690;2023-12-28T04:04:56;8.10;99.90
61412;DHT22;47278;49.732;7.690;2023-12-28T04:07:23;8.10;99.90
61412;DHT22;47278;49.732;7.690;2023-12-28T04:09:48;8.10;99.90
61412;DHT22;47278;49.732;7.690;2023-12-28T04:12:14;8.10;99.90
61412;DHT22;47278;49.732;7.690;2023-12-28T04:14:41;8.20;99.90
61412;DHT22;47278;49.732;7.690;2023-12-28T04:17:07;8.10;99.90
61412;DHT22;47278;49.732;7.690;2023-12-28T04:19:33;8.10;99.90
61412;DHT22;47278;49.732;7.690;2023-12-28T04:21:58;8.20;99.90
61412;DHT22;47278;49.732;7.690;2023-12-28T04:24:23;8.20;99.90
61412;DHT22;47278;49.732;7.690;2023-12-28T04:26:49;8.30;99.90
61412;DHT22;47278;49.732;7.690;2023-12-28T04:29:15;8.20;99.90
61412;DHT22;47278;49.732;7.690;2023-12-28T04:31:41;8.20;99.90
61412;DHT22;47278;49.732;7.690;2023-12-28T04:34:11;8.30;99.90
61412;DHT22;47278;49.732;7.690;2023-12-28T04:36:43;8.30;99.90
61412;DHT22;47278;49.732;7.690;2023-12-28T04:39:10;8.30;99.90
61412;DHT22;47278;49.732;7.690;2023-12-28T04:41:37;8.30;99.90
61412;DHT22;47278;49.732;7.690;2023-12-28T04:44:03;8.30;99.90
61412;DHT22;47278;49.732;7.690;2023-12-28T04:46:29;8.30;99.90
61412;DHT22;47278;49.732;7.690;2023-12-28T04:48:54;8.30;99.90
61412;DHT22;47278;49.732;7.690;2023-12-28T04:51:21;8.30;99.90
61412;DHT22;47278;49.732;7.690;2023-12-28T04:53:47;8.30;99.90
61412;DHT22;47278;49.732;7.690;2023-12-28T04:56:17;8.30;99.90
61412;DHT22;47278;49.732;7.690;2023-12-28T04:58:43;8.30;99.90
61412;DHT22;47278;49.732;7.690;2023-12-28T05:01:09;8.30;99.90
61412;DHT22;47278;49.732;7.690;2023-12-28T05:03:35;8.30;99.90
61412;DHT22;47278;49.732;7.690;2023-12-28T05:06:01;8.40;99.90
61412;DHT22;47278;49.732;7.690;2023-12-28T05:08:27;8.40;99.90
61412;DHT22;47278;49.732;7.690;2023-12-28T05:10:53;8.40;99.90
61412;DHT22;47278;49.732;7.690;2023-12-28T05:13:19;8.40;99.90
61412;DHT22;47278;49.732;7.690;2023-12-28T05:15:45;8.40;99.90
61412;DHT22;47278;49.732;7.690;2023-12-28T05:18:11;8.40;99.90
61412;DHT22;47278;49.732;7.690;2023-12-28T05:20:37;9.70;99.90
61412;DHT22;47278;49.732;7.690;2023-12-28T05:23:04;8.40;99.90
61412;DHT22;47278;49.732;7.690;2023-12-28T05:25:30;8.40;99.90
61412;DHT22;47278;49.732;7.690;2023-12-28T05:27:57;8.40;99.90
61412;DHT22;47278;49.732;7.690;2023-12-28T05:30:23;8.40;99.90
61412;DHT22;47278;49.732;7.690;2023-12-28T05:32:49;8.40;99.90
61412;DHT22;47278;49.732;7.690;2023-12-28T05:35:15;8.40;99.90
61412;DHT22;47278;49.732;7.690;2023-12-28T05:37:41;8.30;99.90
61412;DHT22;47278;49.732;7.690;2023-12-28T05:40:07;8.30;99.90
61412;DHT22;47278;49.732;7.690;2023-12-28T05:42:34;8.30;99.90
61412;DHT22;47278;49.732;7.690;2023-12-28T05:45:00;8.30;99.90
61412;DHT22;47278;49.732;7.690;2023-12-28T05:47:25;8.30;99.90
61412;DHT22;47278;49.732;7.690;2023-12-28T05:49:51;8.30;99.90
61412;DHT22;47278;49.732;7.690;2023-12-28T05:52:17;8.30;99.90
61412;DHT22;47278;49.732;7.690;2023-12-28T05:54:44;8.30;99.90
61412;DHT22;47278;49.732;7.690;2023-12-28T05:57:11;8.30;99.90
61412;DHT22;47278;49.732;7.690;2023-12-28T05:59:38;8.30;99.90
61412;DHT22;47278;49.732;7.690;2023-12-28T06:02:04;8.40;99.90
61412;DHT22;47278;49.732;7.690;2023-12-28T06:04:29;8.40;99.90
61412;DHT22;47278;49.732;7.690;2023-12-28T06:06:55;8.50;99.90
61412;DHT22;47278;49.732;7.690;2023-12-28T06:09:21;8.50;99.90
61412;DHT22;47278;49.732;7.690;2023-12-28T06:11:47;8.50;99.90
61412;DHT22;47278;49.732;7.690;2023-12-28T06:14:13;8.60;99.90
61412;DHT22;47278;49.732;7.690;2023-12-28T06:16:39;8.60;99.90
61412;DHT22;47278;49.732;7.690;2023-12-28T06:19:05;8.60;99.90
61412;DHT22;47278;49.732;7.690;2023-12-28T06:21:31;8.60;99.90
61412;DHT22;47278;49.732;7.690;2023-12-28T06:23:58;8.70;99.90
61412;DHT22;47278;49.732;7.690;2023-12-28T06:26:24;8.60;99.90
61412;DHT22;47278;49.732;7.690;2023-12-28T06:28:50;8.70;99.90
61412;DHT22;47278;49.732;7.690;2023-12-28T06:31:17;8.70;99.90
61412;DHT22;47278;49.732;7.690;2023-12-28T06:33:43;8.70;99.90
61412;DHT22;47278;49.732;7.690;2023-12-28T06:36:09;8.70;99.90
61412;DHT22;47278;49.732;7.690;2023-12-28T06:38:35;8.60;99.90
61412;DHT22;47278;49.732;7.690;2023-12-28T06:41:01;8.70;99.90
61412;DHT22;47278;49.732;7.690;2023-12-28T06:43:27;8.70;99.90
61412;DHT22;47278;49.732;7.690;2023-12-28T06:45:52;8.60;99.90
61412;DHT22;47278;49.732;7.690;2023-12-28T06:48:18;8.70;99.90
61412;DHT22;47278;49.732;7.690;2023-12-28T06:50:44;8.70;99.90
61412;DHT22;47278;49.732;7.690;2023-12-28T06:53:10;8.70;99.90
61412;DHT22;47278;49.732;7.690;2023-12-28T06:55:36;8.80;99.90
61412;DHT22;47278;49.732;7.690;2023-12-28T06:58:01;8.80;99.90
61412;DHT22;47278;49.732;7.690;2023-12-28T07:00:27;8.90;99.90
61412;DHT22;47278;49.732;7.690;2023-12-28T07:02:53;8.90;99.90
61412;DHT22;47278;49.732;7.690;2023-12-28T07:05:19;8.90;99.90
61412;DHT22;47278;49.732;7.690;2023-12-28T07:07:45;8.90;99.90
61412;DHT22;47278;49.732;7.690;2023-12-28T07:10:11;8.90;99.90
61412;DHT22;47278;49.732;7.690;2023-12-28T07:12:37;8.90;99.90
61412;DHT22;47278;49.732;7.690;2023-12-28T07:15:03;9.00;99.90
61412;DHT22;47278;49.732;7.690;2023-12-28T07:17:29;9.00;99.90
61412;DHT22;47278;49.732;7.690;2023-12-28T07:19:54;9.00;99.90
61412;DHT22;47278;49.732;7.690;2023-12-28T07:22:22;9.00;99.90
61412;DHT22;47278;49.732;7.690;2023-12-28T07:24:47;8.90;99.90
61412;DHT22;47278;49.732;7.690;2023-12-28T07:27:13;8.90;99.90
61412;DHT22;47278;49.732;7.690;2023-12-28T07:29:39;8.90;99.90
61412;DHT22;47278;49.732;7.690;2023-12-28T07:32:05;8.90;99.90
61412;DHT22;47278;49.732;7.690;2023-12-28T07:34:33;8.90;99.90
61412;DHT22;47278;49.732;7.690;2023-12-28T07:36:59;8.90;99.90
61412;DHT22;47278;49.732;7.690;2023-12-28T07:39:24;8.90;99.90
61412;DHT22;47278;49.732;7.690;2023-12-28T07:41:51;8.90;99.90
61412;DHT22;47278;49.732;7.690;2023-12-28T07:44:17;9.00;99.90
61412;DHT22;47278;49.732;7.690;2023-12-28T07:46:43;9.00;99.90
61412;DHT22;47278;49.732;7.690;2023-12-28T07:49:09;9.00;99.90
61412;DHT22;47278;49.732;7.690;2023-12-28T07:51:35;9.00;99.90
61412;DHT22;47278;49.732;7.690;2023-12-28T07:54:00;9.10;99.90
61412;DHT22;47278;49.732;7.690;2023-12-28T07:56:27;9.00;99.90
61412;DHT22;47278;49.732;7.690;2023-12-28T07:58:53;9.00;99.90
61412;DHT22;47278;49.732;7.690;2023-12-28T08:01:19;9.00;99.90
61412;DHT22;47278;49.732;7.690;2023-12-28T08:03:45;9.00;99.90
61412;DHT22;47278;49.732;7.690;2023-12-28T08:06:11;9.00;99.90
61412;DHT22;47278;49.732;7.690;2023-12-28T08:08:38;9.00;99.90
61412;DHT22;47278;49.732;7.690;2023-12-28T08:11:06;9.10;99.90
61412;DHT22;47278;49.732;7.690;2023-12-28T08:13:34;9.10;99.90
61412;DHT22;47278;49.732;7.690;2023-12-28T08:15:59;9.10;99.90
61412;DHT22;47278;49.732;7.690;2023-12-28T08:18:25;9.10;99.90
61412;DHT22;47278;49.732;7.690;2023-12-28T08:20:51;9.10;99.90
61412;DHT22;47278;49.732;7.690;2023-12-28T08:23:17;9.10;99.90
61412;DHT22;47278;49.732;7.690;2023-12-28T08:25:43;9.00;99.90
61412;DHT22;47278;49.732;7.690;2023-12-28T08:28:09;8.90;99.90
61412;DHT22;47278;49.732;7.690;2023-12-28T08:30:35;8.90;99.90
61412;DHT22;47278;49.732;7.690;2023-12-28T08:33:01;8.90;99.90
61412;DHT22;47278;49.732;7.690;2023-12-28T08:35:27;8.90;99.90
61412;DHT22;47278;49.732;7.690;2023-12-28T08:37:52;8.90;99.90
61412;DHT22;47278;49.732;7.690;2023-12-28T08:40:19;8.90;99.90
61412;DHT22;47278;49.732;7.690;2023-12-28T08:42:45;8.90;99.90
61412;DHT22;47278;49.732;7.690;2023-12-28T08:45:11;8.90;99.90
61412;DHT22;47278;49.732;7.690;2023-12-28T08:47:37;8.90;99.90
61412;DHT22;47278;49.732;7.690;2023-12-28T08:50:03;8.70;99.90
61412;DHT22;47278;49.732;7.690;2023-12-28T08:52:29;8.90;99.90
61412;DHT22;47278;49.732;7.690;2023-12-28T08:54:55;8.90;99.90
61412;DHT22;47278;49.732;7.690;2023-12-28T08:57:20;8.90;99.90
61412;DHT22;47278;49.732;7.690;2023-12-28T08:59:47;8.90;99.90
61412;DHT22;47278;49.732;7.690;2023-12-28T09:02:12;9.00;99.90
61412;DHT22;47278;49.732;7.690;2023-12-28T09:04:38;9.10;99.90
61412;DHT22;47278;49.732;7.690;2023-12-28T09:07:04;9.10;99.90
61412;DHT22;47278;49.732;7.690;2023-12-28T09:09:30;9.20;99.90
61412;DHT22;47278;49.732;7.690;2023-12-28T09:11:55;9.20;99.90
61412;DHT22;47278;49.732;7.690;2023-12-28T09:14:21;9.20;99.90
61412;DHT22;47278;49.732;7.690;2023-12-28T09:16:47;9.20;99.90
61412;DHT22;47278;49.732;7.690;2023-12-28T09:19:13;9.30;99.90
61412;DHT22;47278;49.732;7.690;2023-12-28T09:21:39;9.30;99.90
61412;DHT22;47278;49.732;7.690;2023-12-28T09:24:06;9.40;99.90
61412;DHT22;47278;49.732;7.690;2023-12-28T09:26:33;9.50;99.90
61412;DHT22;47278;49.732;7.690;2023-12-28T09:28:59;9.60;99.90
61412;DHT22;47278;49.732;7.690;2023-12-28T09:31:24;9.70;99.90
61412;DHT22;47278;49.732;7.690;2023-12-28T09:33:51;9.80;99.90
61412;DHT22;47278;49.732;7.690;2023-12-28T09:36:17;9.80;99.90
61412;DHT22;47278;49.732;7.690;2023-12-28T09:38:43;9.80;99.90
61412;DHT22;47278;49.732;7.690;2023-12-28T09:41:13;9.90;99.90
61412;DHT22;47278;49.732;7.690;2023-12-28T09:43:54;10.00;99.90
61412;DHT22;47278;49.732;7.690;2023-12-28T09:46:23;9.90;99.90
61412;DHT22;47278;49.732;7.690;2023-12-28T09:48:48;10.00;99.90
61412;DHT22;47278;49.732;7.690;2023-12-28T09:51:15;9.90;99.90
61412;DHT22;47278;49.732;7.690;2023-12-28T09:53:42;9.90;99.90
61412;DHT22;47278;49.732;7.690;2023-12-28T09:56:09;9.90;99.90
61412;DHT22;47278;49.732;7.690;2023-12-28T09:58:35;9.90;99.90
61412;DHT22;47278;49.732;7.690;2023-12-28T10:01:03;9.90;99.90
61412;DHT22;47278;49.732;7.690;2023-12-28T10:03:29;10.00;99.90
61412;DHT22;47278;49.732;7.690;2023-12-28T10:05:55;10.00;99.90
61412;DHT22;47278;49.732;7.690;2023-12-28T10:08:21;10.00;99.90
61412;DHT22;47278;49.732;7.690;2023-12-28T10:10:47;10.10;99.90
61412;DHT22;47278;49.732;7.690;2023-12-28T10:13:16;10.20;99.90
61412;DHT22;47278;49.732;7.690;2023-12-28T10:15:43;10.30;99.90
61412;DHT22;47278;49.732;7.690;2023-12-28T10:18:09;10.30;99.90
61412;DHT22;47278;49.732;7.690;2023-12-28T10:20:36;10.40;99.90
61412;DHT22;47278;49.732;7.690;2023-12-28T10:23:02;10.30;99.90
61412;DHT22;47278;49.732;7.690;2023-12-28T10:25:29;10.40;99.90
61412;DHT22;47278;49.732;7.690;2023-12-28T10:27:54;10.40;99.90
61412;DHT22;47278;49.732;7.690;2023-12-28T10:30:20;10.40;99.90
61412;DHT22;47278;49.732;7.690;2023-12-28T10:32:46;10.50;99.90
61412;DHT22;47278;49.732;7.690;2023-12-28T10:35:12;10.40;99.90
61412;DHT22;47278;49.732;7.690;2023-12-28T10:37:41;10.50;99.90
61412;DHT22;47278;49.732;7.690;2023-12-28T10:40:12;10.50;99.90
61412;DHT22;47278;49.732;7.690;2023-12-28T10:42:49;10.50;99.90
61412;DHT22;47278;49.732;7.690;2023-12-28T10:45:18;10.50;99.90
61412;DHT22;47278;49.732;7.690;2023-12-28T10:47:48;10.50;99.90
61412;DHT22;47278;49.732;7.690;2023-12-28T10:50:17;10.50;99.90
61412;DHT22;47278;49.732;7.690;2023-12-28T10:52:43;10.50;99.90
61412;DHT22;47278;49.732;7.690;2023-12-28T10:55:30;10.50;99.90
61412;DHT22;47278;49.732;7.690;2023-12-28T11:00:29;10.50;99.90
61412;DHT22;47278;49.732;7.690;2023-12-28T11:02:57;10.50;99.90
61412;DHT22;47278;49.732;7.690;2023-12-28T11:05:23;10.60;99.90
61412;DHT22;47278;49.732;7.690;2023-12-28T11:07:50;10.50;99.90
61412;DHT22;47278;49.732;7.690;2023-12-28T11:10:18;10.60;99.90
61412;DHT22;47278;49.732;7.690;2023-12-28T11:12:45;10.60;99.90
61412;DHT22;47278;49.732;7.690;2023-12-28T11:15:11;10.50;99.90
61412;DHT22;47278;49.732;7.690;2023-12-28T11:17:38;10.20;99.90
61412;DHT22;47278;49.732;7.690;2023-12-28T11:20:06;10.50;99.90
61412;DHT22;47278;49.732;7.690;2023-12-28T11:22:31;10.50;99.90
61412;DHT22;47278;49.732;7.690;2023-12-28T11:24:58;10.40;99.90
61412;DHT22;47278;49.732;7.690;2023-12-28T11:27:25;10.40;99.90
61412;DHT22;47278;49.732;7.690;2023-12-28T11:29:58;10.40;99.90
61412;DHT22;47278;49.732;7.690;2023-12-28T11:32:23;10.40;99.90
61412;DHT22;47278;49.732;7.690;2023-12-28T11:34:59;10.40;99.90
61412;DHT22;47278;49.732;7.690;2023-12-28T11:37:26;10.40;99.90
61412;DHT22;47278;49.732;7.690;2023-12-28T11:39:51;10.40;99.90
61412;DHT22;47278;49.732;7.690;2023-12-28T11:42:20;10.40;99.90
61412;DHT22;47278;49.732;7.690;2023-12-28T11:44:47;10.40;99.90
61412;DHT22;47278;49.732;7.690;2023-12-28T11:47:16;10.40;99.90
61412;DHT22;47278;49.732;7.690;2023-12-28T11:49:41;10.40;99.90
61412;DHT22;47278;49.732;7.690;2023-12-28T11:52:08;10.40;99.90
61412;DHT22;47278;49.732;7.690;2023-12-28T11:54:35;10.50;99.90
61412;DHT22;47278;49.732;7.690;2023-12-28T11:57:01;10.40;99.90
61412;DHT22;47278;49.732;7.690;2023-12-28T11:59:27;10.40;99.90
61412;DHT22;47278;49.732;7.690;2023-12-28T12:01:53;10.40;99.90
61412;DHT22;47278;49.732;7.690;2023-12-28T12:04:20;10.40;99.90
61412;DHT22;47278;49.732;7.690;2023-12-28T12:06:46;10.40;99.90
61412;DHT22;47278;49.732;7.690;2023-12-28T12:09:12;10.50;99.90
61412;DHT22;47278;49.732;7.690;2023-12-28T12:11:38;10.50;99.90
61412;DHT22;47278;49.732;7.690;2023-12-28T12:14:08;10.60;99.90
61412;DHT22;47278;49.732;7.690;2023-12-28T12:16:35;10.60;99.90
61412;DHT22;47278;49.732;7.690;2023-12-28T12:19:00;10.60;99.90
61412;DHT22;47278;49.732;7.690;2023-12-28T12:21:28;10.60;99.90
61412;DHT22;47278;49.732;7.690;2023-12-28T12:23:54;10.60;99.90
61412;DHT22;47278;49.732;7.690;2023-12-28T12:26:19;10.60;99.90
61412;DHT22;47278;49.732;7.690;2023-12-28T12:28:46;10.50;99.90
61412;DHT22;47278;49.732;7.690;2023-12-28T12:31:13;10.60;99.90
61412;DHT22;47278;49.732;7.690;2023-12-28T12:33:39;10.60;99.90
61412;DHT22;47278;49.732;7.690;2023-12-28T12:36:05;10.60;99.90
61412;DHT22;47278;49.732;7.690;2023-12-28T12:38:31;10.60;99.90
61412;DHT22;47278;49.732;7.690;2023-12-28T12:40:58;10.60;99.90
61412;DHT22;47278;49.732;7.690;2023-12-28T12:43:25;10.50;99.90
61412;DHT22;47278;49.732;7.690;2023-12-28T12:45:52;10.50;99.90
61412;DHT22;47278;49.732;7.690;2023-12-28T12:48:18;10.50;99.90
61412;DHT22;47278;49.732;7.690;2023-12-28T12:50:45;10.50;99.90
61412;DHT22;47278;49.732;7.690;2023-12-28T12:53:11;10.40;99.90
61412;DHT22;47278;49.732;7.690;2023-12-28T12:55:37;10.30;99.90
61412;DHT22;47278;49.732;7.690;2023-12-28T12:58:10;10.20;99.90
61412;DHT22;47278;49.732;7.690;2023-12-28T13:00:38;10.20;99.90
61412;DHT22;47278;49.732;7.690;2023-12-28T13:03:03;10.20;99.90
61412;DHT22;47278;49.732;7.690;2023-12-28T13:05:34;10.10;99.90
61412;DHT22;47278;49.732;7.690;2023-12-28T13:08:01;10.10;99.90
61412;DHT22;47278;49.732;7.690;2023-12-28T13:10:27;10.10;99.90
61412;DHT22;47278;49.732;7.690;2023-12-28T13:12:54;10.10;99.90
61412;DHT22;47278;49.732;7.690;2023-12-28T13:15:19;10.20;99.90
61412;DHT22;47278;49.732;7.690;2023-12-28T13:17:45;10.10;99.90
61412;DHT22;47278;49.732;7.690;2023-12-28T13:20:11;10.10;99.90
61412;DHT22;47278;49.732;7.690;2023-12-28T13:22:37;10.10;99.90
61412;DHT22;47278;49.732;7.690;2023-12-28T13:25:02;10.10;99.90
61412;DHT22;47278;49.732;7.690;2023-12-28T13:27:29;10.00;99.90
61412;DHT22;47278;49.732;7.690;2023-12-28T13:29:56;9.90;99.90
61412;DHT22;47278;49.732;7.690;2023-12-28T13:32:23;9.80;99.90
61412;DHT22;47278;49.732;7.690;2023-12-28T13:34:49;9.70;99.90
61412;DHT22;47278;49.732;7.690;2023-12-28T13:37:16;9.60;99.90
61412;DHT22;47278;49.732;7.690;2023-12-28T13:39:42;9.90;99.90
61412;DHT22;47278;49.732;7.690;2023-12-28T13:42:07;9.90;99.90
61412;DHT22;47278;49.732;7.690;2023-12-28T13:44:34;10.20;99.90
61412;DHT22;47278;49.732;7.690;2023-12-28T13:47:01;10.40;99.90
61412;DHT22;47278;49.732;7.690;2023-12-28T13:49:27;10.40;99.90
61412;DHT22;47278;49.732;7.690;2023-12-28T13:51:53;10.20;99.90
61412;DHT22;47278;49.732;7.690;2023-12-28T13:54:19;10.20;99.90
61412;DHT22;47278;49.732;7.690;2023-12-28T13:56:46;10.20;99.90
61412;DHT22;47278;49.732;7.690;2023-12-28T13:59:13;10.10;99.90
61412;DHT22;47278;49.732;7.690;2023-12-28T14:01:38;10.00;99.90
61412;DHT22;47278;49.732;7.690;2023-12-28T14:04:04;10.00;99.90
61412;DHT22;47278;49.732;7.690;2023-12-28T14:06:29;10.00;99.90
61412;DHT22;47278;49.732;7.690;2023-12-28T14:08:55;10.00;99.90
61412;DHT22;47278;49.732;7.690;2023-12-28T14:11:23;9.90;99.90
61412;DHT22;47278;49.732;7.690;2023-12-28T14:13:48;10.00;99.90
61412;DHT22;47278;49.732;7.690;2023-12-28T14:16:14;10.10;99.90
61412;DHT22;47278;49.732;7.690;2023-12-28T14:18:39;10.10;99.90
61412;DHT22;47278;49.732;7.690;2023-12-28T14:21:07;10.10;99.90
61412;DHT22;47278;49.732;7.690;2023-12-28T14:23:34;10.00;99.90
61412;DHT22;47278;49.732;7.690;2023-12-28T14:26:11;9.80;99.90
61412;DHT22;47278;49.732;7.690;2023-12-28T14:28:38;9.90;99.90
61412;DHT22;47278;49.732;7.690;2023-12-28T14:31:04;9.90;99.90
61412;DHT22;47278;49.732;7.690;2023-12-28T14:33:30;9.80;99.90
61412;DHT22;47278;49.732;7.690;2023-12-28T14:35:57;9.80;99.90
61412;DHT22;47278;49.732;7.690;2023-12-28T14:38:23;9.90;99.90
61412;DHT22;47278;49.732;7.690;2023-12-28T14:40:49;9.90;99.90
61412;DHT22;47278;49.732;7.690;2023-12-28T14:43:17;9.90;99.90
61412;DHT22;47278;49.732;7.690;2023-12-28T14:45:44;9.90;99.90
61412;DHT22;47278;49.732;7.690;2023-12-28T14:48:11;9.90;99.90
61412;DHT22;47278;49.732;7.690;2023-12-28T14:50:38;10.00;99.90
61412;DHT22;47278;49.732;7.690;2023-12-28T14:53:03;10.00;99.90
61412;DHT22;47278;49.732;7.690;2023-12-28T14:55:30;10.00;99.90
61412;DHT22;47278;49.732;7.690;2023-12-28T14:57:55;10.00;99.90
61412;DHT22;47278;49.732;7.690;2023-12-28T15:00:21;9.90;99.90
61412;DHT22;47278;49.732;7.690;2023-12-28T15:02:48;9.90;99.90
61412;DHT22;47278;49.732;7.690;2023-12-28T15:05:13;9.80;99.90
61412;DHT22;47278;49.732;7.690;2023-12-28T15:07:39;9.90;99.90
61412;DHT22;47278;49.732;7.690;2023-12-28T15:10:06;9.90;99.90
61412;DHT22;47278;49.732;7.690;2023-12-28T15:12:33;9.80;99.90
61412;DHT22;47278;49.732;7.690;2023-12-28T15:15:00;9.80;99.90
61412;DHT22;47278;49.732;7.690;2023-12-28T15:17:25;9.70;99.90
61412;DHT22;47278;49.732;7.690;2023-12-28T15:19:52;9.80;99.90
61412;DHT22;47278;49.732;7.690;2023-12-28T15:22:17;9.70;99.90
61412;DHT22;47278;49.732;7.690;2023-12-28T15:24:43;9.70;99.90
61412;DHT22;47278;49.732;7.690;2023-12-28T15:27:09;9.70;99.90
61412;DHT22;47278;49.732;7.690;2023-12-28T15:29:35;9.70;99.90
61412;DHT22;47278;49.732;7.690;2023-12-28T15:32:01;9.60;99.90
61412;DHT22;47278;49.732;7.690;2023-12-28T15:34:27;9.60;99.90
61412;DHT22;47278;49.732;7.690;2023-12-28T15:36:52;9.60;99.90
61412;DHT22;47278;49.732;7.690;2023-12-28T15:39:20;9.60;99.90
61412;DHT22;47278;49.732;7.690;2023-12-28T15:41:45;9.70;99.90
61412;DHT22;47278;49.732;7.690;2023-12-28T15:44:12;9.60;99.90